Terminal Aerodrome Forecast
Issued by NWS

Home | Current Version | Previous Version | Text Only | Print | Product List | Glossary On
Versions: 1 2 3 4 5 6 7 8 9 10 11 12 13
000
FTUS41 KCAR 041734
TAFPQI
TAF
KPQI 041734Z 0418/0518 24007KT P6SM FEW050 BKN250
     FM050500 VRB03KT P6SM BKN250
     FM051400 28007KT P6SM BKN060
      AMD LTD TO CLD VIS AND WIND=

USA.gov is the U.S. government's official web portal to all federal, state and local government web resources and services.